East Norriton, Pennsylvania
Current Conditions -  °F | °C
As of 12:55 PM on Monday 24 Nov 2014 (Local Time) from KLOM Reporting Station
Scattered Clouds Scattered Clouds  
Wind Chill: 72°   Ceiling: Unl
Heat Index: 72°   Visibility: 10mi
Dew Point: 59°   Wind: 18mph
Humidity: 64%   Direction: 210°SSW
Pressure: 29.6"   Gusts: 26mph
Location:  40.1497°N, 75.3819°W
Report Text: KLOM 241755Z AUTO 21016G23KT 10SM SCT029 22/15 A2960 RMK AO1
Loading
Personal Weather Stations






























Interactive Weather Map New forecast layout! Learn more

10-Day Weather Forecast

Advertisements
Track Severe Weather on mobile